createdAt,value
2022-07-29T00:00:25.824Z,99.63
2022-07-29T00:02:55.644Z,98.80
2022-07-29T00:05:24.105Z,99.80
2022-07-29T00:07:52.501Z,99.91
2022-07-29T00:10:21.140Z,100.12
2022-07-29T00:12:49.553Z,100.26
2022-07-29T00:15:18.298Z,99.58
2022-07-29T00:17:46.569Z,100.93
2022-07-29T00:20:16.247Z,100.12
2022-07-29T00:22:44.697Z,100.00
2022-07-29T00:25:14.939Z,100.07
2022-07-29T00:27:43.197Z,99.91
2022-07-29T00:30:11.977Z,100.22
2022-07-29T00:32:40.309Z,100.42
2022-07-29T00:35:26.682Z,100.62
2022-07-29T00:37:56.430Z,98.90
2022-07-29T00:40:24.933Z,100.22
2022-07-29T00:42:54.138Z,100.77
2022-07-29T00:45:23.102Z,100.34
2022-07-29T00:47:51.562Z,100.18
2022-07-29T00:50:20.278Z,100.41
2022-07-29T00:52:48.855Z,100.05
2022-07-29T00:55:18.813Z,100.48
2022-07-29T00:57:48.216Z,100.06
2022-07-29T01:00:19.345Z,100.20
2022-07-29T01:02:49.268Z,99.67
2022-07-29T01:05:20.012Z,98.19
2022-07-29T01:07:51.020Z,100.41
2022-07-29T01:10:22.036Z,100.12
2022-07-29T01:12:52.753Z,99.96
2022-07-29T01:15:21.338Z,100.38
2022-07-29T01:17:56.237Z,100.30
2022-07-29T01:20:31.483Z,100.64
2022-07-29T01:23:30.865Z,99.92
2022-07-29T01:26:30.201Z,100.34
2022-07-29T01:29:08.173Z,100.27
2022-07-29T01:31:53.781Z,100.16
2022-07-29T01:34:36.506Z,100.06
2022-07-29T01:37:15.224Z,100.46
2022-07-29T01:39:45.834Z,100.33
2022-07-29T01:42:21.866Z,100.44
2022-07-29T01:44:59.076Z,99.95
2022-07-29T01:47:35.787Z,99.52
2022-07-29T01:50:09.527Z,98.12
2022-07-29T01:52:44.219Z,97.13
2022-07-29T01:55:16.982Z,95.87
2022-07-29T01:57:48.665Z,95.16
2022-07-29T02:00:19.615Z,94.84
2022-07-29T02:02:50.267Z,93.61
2022-07-29T02:05:24.186Z,93.93
2022-07-29T02:07:57.529Z,93.37
2022-07-29T02:10:29.810Z,91.40
2022-07-29T02:13:00.379Z,92.22
2022-07-29T02:15:34.174Z,93.06
2022-07-29T02:18:07.159Z,94.19
2022-07-29T02:20:36.354Z,92.79
2022-07-29T02:23:05.647Z,94.40
2022-07-29T02:25:38.166Z,94.88
2022-07-29T02:28:08.765Z,94.84
2022-07-29T02:30:43.892Z,93.49
2022-07-29T02:33:15.749Z,93.55
2022-07-29T02:35:46.932Z,93.98
2022-07-29T02:38:35.742Z,93.91
2022-07-29T02:41:07.928Z,93.70
2022-07-29T02:43:37.977Z,92.50
2022-07-29T02:46:29.281Z,93.59
2022-07-29T02:49:03.301Z,92.17
2022-07-29T02:51:43.419Z,91.83
2022-07-29T02:54:17.003Z,92.11
2022-07-29T02:56:49.755Z,91.79
2022-07-29T02:59:22.629Z,91.05
2022-07-29T03:01:53.289Z,91.05
2022-07-29T03:04:23.474Z,90.12
2022-07-29T03:06:54.636Z,89.77
2022-07-29T03:09:25.451Z,89.98
2022-07-29T03:11:55.502Z,88.91
2022-07-29T03:14:25.062Z,86.52
2022-07-29T03:16:54.982Z,88.02
2022-07-29T03:19:25.805Z,87.45
2022-07-29T03:21:55.064Z,83.45
2022-07-29T03:24:31.752Z,83.49
2022-07-29T03:27:00.054Z,80.24
2022-07-29T03:29:33.156Z,82.98
2022-07-29T03:32:08.161Z,80.82
2022-07-29T03:34:40.232Z,81.14
2022-07-29T03:37:09.237Z,80.11
2022-07-29T03:39:42.652Z,79.72
2022-07-29T03:42:13.951Z,77.50
2022-07-29T03:44:45.096Z,78.08
2022-07-29T03:47:16.595Z,77.58
2022-07-29T03:49:48.664Z,78.00
2022-07-29T03:52:17.576Z,77.47
2022-07-29T03:54:46.047Z,78.08
2022-07-29T03:57:14.842Z,77.56
2022-07-29T03:59:44.216Z,77.33
2022-07-29T04:02:20.086Z,76.99
2022-07-29T04:04:50.322Z,77.08
2022-07-29T04:07:18.660Z,77.38
2022-07-29T04:09:46.949Z,76.24
2022-07-29T04:12:15.312Z,75.92
2022-07-29T04:14:43.617Z,75.62
2022-07-29T04:17:12.013Z,75.86
2022-07-29T04:19:43.999Z,75.75
2022-07-29T04:22:13.221Z,75.41
2022-07-29T04:24:44.354Z,75.37
2022-07-29T04:27:12.907Z,75.53
2022-07-29T04:29:56.143Z,75.62
2022-07-29T04:32:25.994Z,75.73
2022-07-29T04:34:55.701Z,75.67
2022-07-29T04:37:23.964Z,75.74
2022-07-29T04:39:52.353Z,75.66
2022-07-29T04:42:25.209Z,75.63
2022-07-29T04:44:56.453Z,75.60
2022-07-29T04:47:24.825Z,75.67
2022-07-29T04:49:53.125Z,75.72
2022-07-29T04:52:23.220Z,75.74
2022-07-29T04:54:52.125Z,75.50
2022-07-29T04:57:20.425Z,75.58
2022-07-29T04:59:49.687Z,75.49
2022-07-29T05:02:18.125Z,75.50
2022-07-29T05:04:46.558Z,75.55
2022-07-29T05:07:15.226Z,76.21
2022-07-29T05:09:45.027Z,76.28
2022-07-29T05:12:13.337Z,76.86
2022-07-29T05:14:41.640Z,77.26
2022-07-29T05:17:09.899Z,77.11
2022-07-29T05:19:39.326Z,77.64
2022-07-29T05:22:08.625Z,78.08
2022-07-29T05:24:36.946Z,78.78
2022-07-29T05:27:06.759Z,79.56
2022-07-29T05:29:44.413Z,79.80
2022-07-29T05:32:13.939Z,79.90
2022-07-29T05:34:51.185Z,79.67
2022-07-29T05:37:20.458Z,80.17
2022-07-29T05:39:56.986Z,80.23
2022-07-29T05:42:28.108Z,79.91
2022-07-29T05:44:56.369Z,80.21
2022-07-29T05:47:25.133Z,80.86
2022-07-29T05:49:53.552Z,81.14
2022-07-29T05:52:22.014Z,79.96
2022-07-29T05:54:50.503Z,78.27
2022-07-29T05:57:21.706Z,77.48
2022-07-29T05:59:55.505Z,79.04
2022-07-29T06:02:23.831Z,78.00
2022-07-29T06:04:52.115Z,78.09
2022-07-29T06:07:20.820Z,78.69
2022-07-29T06:09:49.152Z,77.55
2022-07-29T06:12:17.566Z,79.06
2022-07-29T06:14:46.112Z,80.30
2022-07-29T06:17:15.715Z,80.32
2022-07-29T06:19:43.948Z,81.07
2022-07-29T06:22:12.319Z,82.89
2022-07-29T06:24:44.865Z,85.47
2022-07-29T06:27:13.362Z,85.73
2022-07-29T06:29:41.788Z,86.75
2022-07-29T06:32:11.048Z,87.78
2022-07-29T06:34:40.786Z,87.24
2022-07-29T06:37:15.659Z,88.59
2022-07-29T06:39:44.133Z,89.39
2022-07-29T06:42:12.546Z,88.76
2022-07-29T06:44:40.839Z,88.51
2022-07-29T06:47:09.303Z,91.86
2022-07-29T06:49:37.582Z,91.33
2022-07-29T06:52:07.477Z,90.82
2022-07-29T06:54:35.769Z,91.25
2022-07-29T06:57:04.045Z,92.00
2022-07-29T06:59:35.913Z,92.09
2022-07-29T07:02:05.017Z,93.71
2022-07-29T07:04:33.674Z,94.92
2022-07-29T07:07:01.999Z,96.33
2022-07-29T07:09:40.088Z,97.83
2022-07-29T07:12:09.610Z,94.65
2022-07-29T07:14:37.886Z,94.77
2022-07-29T07:17:08.053Z,99.61
2022-07-29T07:19:36.466Z,99.78
2022-07-29T07:22:04.865Z,98.71
2022-07-29T07:24:34.520Z,98.15
2022-07-29T07:27:02.893Z,98.52
2022-07-29T07:29:31.277Z,99.56
2022-07-29T07:32:01.216Z,98.98
2022-07-29T07:34:31.087Z,98.97
2022-07-29T07:36:59.438Z,99.19
2022-07-29T07:39:28.172Z,99.32
2022-07-29T07:41:57.903Z,99.24
2022-07-29T07:44:26.243Z,99.36
2022-07-29T07:46:54.900Z,100.79
2022-07-29T07:49:23.362Z,100.74
2022-07-29T07:51:54.078Z,101.14
2022-07-29T07:54:22.373Z,100.16
2022-07-29T07:56:53.263Z,99.42
2022-07-29T07:59:23.209Z,98.92
2022-07-29T08:01:55.741Z,100.65
2022-07-29T08:04:28.456Z,100.51
2022-07-29T08:06:57.873Z,100.74
2022-07-29T08:09:29.850Z,100.02
2022-07-29T08:12:00.035Z,100.99
2022-07-29T08:14:30.549Z,100.77
2022-07-29T08:16:59.119Z,99.43
2022-07-29T08:19:27.520Z,100.60
2022-07-29T08:21:56.064Z,100.00
2022-07-29T08:24:41.910Z,101.03
2022-07-29T08:27:33.341Z,99.08
2022-07-29T08:30:00.065Z,98.96
2022-07-29T08:32:52.139Z,99.84
2022-07-29T08:35:17.711Z,100.20
2022-07-29T08:37:45.959Z,100.97
2022-07-29T08:40:15.218Z,99.07
2022-07-29T08:42:43.785Z,100.19
2022-07-29T08:45:13.563Z,98.61
2022-07-29T08:47:42.299Z,99.56
2022-07-29T08:50:11.398Z,99.80
2022-07-29T08:52:42.491Z,98.06
2022-07-29T08:55:12.173Z,98.45
2022-07-29T08:57:50.962Z,99.34
2022-07-29T09:00:25.967Z,98.65
2022-07-29T09:02:59.865Z,96.52
2022-07-29T09:05:29.936Z,96.29
2022-07-29T09:07:58.926Z,95.17
2022-07-29T09:10:28.660Z,96.18
2022-07-29T09:12:58.222Z,94.42
2022-07-29T09:15:28.757Z,93.44
2022-07-29T09:17:59.362Z,93.37
2022-07-29T09:20:48.311Z,91.42
2022-07-29T09:23:24.662Z,90.31
2022-07-29T09:25:54.203Z,91.97
2022-07-29T09:28:24.840Z,92.31
2022-07-29T09:30:56.098Z,89.05
2022-07-29T09:33:26.772Z,91.24
2022-07-29T09:36:04.679Z,91.88
2022-07-29T09:38:35.618Z,88.54
2022-07-29T09:41:09.294Z,87.12
2022-07-29T09:43:39.032Z,89.41
2022-07-29T09:46:16.724Z,87.08
2022-07-29T09:48:46.730Z,87.47
2022-07-29T09:51:25.499Z,87.09
2022-07-29T09:53:57.221Z,87.42
2022-07-29T09:56:42.089Z,84.78
2022-07-29T09:59:12.631Z,85.71
2022-07-29T10:01:44.324Z,83.65
2022-07-29T10:04:13.434Z,85.22
2022-07-29T10:07:04.684Z,86.94
2022-07-29T10:09:35.380Z,84.29
2022-07-29T10:12:12.157Z,83.68
2022-07-29T10:14:40.994Z,83.07
2022-07-29T10:17:13.939Z,83.89
2022-07-29T10:19:43.841Z,83.03
2022-07-29T10:22:14.988Z,81.96
2022-07-29T10:24:44.033Z,82.91
2022-07-29T10:27:13.629Z,80.05
2022-07-29T10:29:42.857Z,82.90
2022-07-29T10:32:39.209Z,81.76
2022-07-29T10:35:29.699Z,83.59
2022-07-29T10:38:17.474Z,81.55
2022-07-29T10:41:19.429Z,80.30
2022-07-29T10:43:51.361Z,81.30
2022-07-29T10:46:21.755Z,80.72
2022-07-29T10:49:17.549Z,79.27
2022-07-29T10:52:05.864Z,76.56
2022-07-29T10:54:51.218Z,79.00
2022-07-29T10:57:53.804Z,79.35
2022-07-29T11:00:35.993Z,78.34
2022-07-29T11:03:10.511Z,80.29
2022-07-29T11:05:59.935Z,84.27
2022-07-29T11:08:29.062Z,76.34
2022-07-29T11:11:43.832Z,78.20
2022-07-29T11:14:20.007Z,77.29
2022-07-29T11:17:07.189Z,77.63
2022-07-29T11:19:40.224Z,79.04
2022-07-29T11:22:45.901Z,74.86
2022-07-29T11:25:16.714Z,76.49
2022-07-29T11:27:46.554Z,73.81
2022-07-29T11:30:16.573Z,74.20
2022-07-29T11:32:48.535Z,68.23
2022-07-29T11:35:20.064Z,71.43
2022-07-29T11:38:31.820Z,73.82
2022-07-29T11:41:23.682Z,75.60
2022-07-29T11:43:53.718Z,72.56
2022-07-29T11:46:46.815Z,71.35
2022-07-29T11:49:21.929Z,72.69
2022-07-29T11:51:53.863Z,70.11
2022-07-29T11:54:27.698Z,72.00
2022-07-29T11:56:57.018Z,71.74
2022-07-29T11:59:33.575Z,75.06
2022-07-29T12:02:33.178Z,71.61
2022-07-29T12:04:52.890Z,73.32
2022-07-29T12:07:32.663Z,71.81
2022-07-29T12:10:06.203Z,72.34
2022-07-29T12:12:34.916Z,72.98
2022-07-29T12:15:22.356Z,75.44
2022-07-29T12:17:51.220Z,76.73
2022-07-29T12:20:26.412Z,74.42
2022-07-29T12:22:56.804Z,72.93
2022-07-29T12:25:35.015Z,71.71
2022-07-29T12:28:05.638Z,70.36
2022-07-29T12:30:47.100Z,68.65
2022-07-29T12:33:19.423Z,72.80
2022-07-29T12:36:03.470Z,70.71
2022-07-29T12:38:36.804Z,72.38
2022-07-29T12:41:06.573Z,70.51
2022-07-29T12:43:34.932Z,73.59
2022-07-29T12:46:15.878Z,69.91
2022-07-29T12:48:45.509Z,67.55
2022-07-29T12:51:15.510Z,71.40
2022-07-29T12:53:44.038Z,68.84
2022-07-29T12:56:42.778Z,71.08
2022-07-29T12:59:15.085Z,71.00
2022-07-29T13:01:44.361Z,72.47
2022-07-29T13:04:12.781Z,70.29
2022-07-29T13:06:42.708Z,69.11
2022-07-29T13:09:16.491Z,68.75
2022-07-29T13:11:58.699Z,67.70
2022-07-29T13:14:34.756Z,64.54
2022-07-29T13:17:06.044Z,69.71
2022-07-29T13:19:41.225Z,68.26
2022-07-29T13:22:10.251Z,70.76
2022-07-29T13:24:49.037Z,67.06
2022-07-29T13:27:19.332Z,70.93
2022-07-29T13:29:48.482Z,65.67
2022-07-29T13:32:16.878Z,66.13
2022-07-29T13:34:45.214Z,64.80
2022-07-29T13:37:13.944Z,67.42
2022-07-29T13:39:42.300Z,72.42
2022-07-29T13:42:22.621Z,76.12
2022-07-29T13:44:52.617Z,71.19
2022-07-29T13:47:21.508Z,72.49
2022-07-29T13:49:50.245Z,72.88
2022-07-29T13:52:18.808Z,70.10
2022-07-29T13:54:47.536Z,67.96
2022-07-29T13:57:16.697Z,73.96
2022-07-29T13:59:49.476Z,65.38
2022-07-29T14:02:25.272Z,67.68
2022-07-29T14:04:54.838Z,65.14
2022-07-29T14:07:23.605Z,70.49
2022-07-29T14:09:52.175Z,68.48
2022-07-29T14:12:20.742Z,64.66
2022-07-29T14:14:51.123Z,60.54
2022-07-29T14:17:19.523Z,62.07
2022-07-29T14:19:47.821Z,62.83
2022-07-29T14:22:16.247Z,62.69
2022-07-29T14:24:44.865Z,62.42
2022-07-29T14:27:13.553Z,61.39
2022-07-29T14:29:42.918Z,62.25
2022-07-29T14:32:13.013Z,61.11
2022-07-29T14:34:41.538Z,61.76
2022-07-29T14:37:16.085Z,63.48
2022-07-29T14:39:44.658Z,63.19
2022-07-29T14:42:14.144Z,61.38
2022-07-29T14:44:43.006Z,60.51
2022-07-29T14:47:14.394Z,62.32
2022-07-29T14:49:42.731Z,60.43
2022-07-29T14:52:11.082Z,60.32
2022-07-29T14:54:39.376Z,60.35
2022-07-29T14:57:08.594Z,55.58
2022-07-29T14:59:36.881Z,56.64
2022-07-29T15:02:05.278Z,55.98
2022-07-29T15:04:35.332Z,55.77
2022-07-29T15:07:04.600Z,59.30
2022-07-29T15:09:33.380Z,63.44
2022-07-29T15:12:09.099Z,65.07
2022-07-29T15:14:37.462Z,62.99
2022-07-29T15:17:06.771Z,68.99
2022-07-29T15:19:37.648Z,65.30
2022-07-29T15:22:07.071Z,64.37
2022-07-29T15:24:35.553Z,62.93
2022-07-29T15:27:03.893Z,59.42
2022-07-29T15:29:32.188Z,59.12
2022-07-29T15:32:02.928Z,58.94
2022-07-29T15:34:31.554Z,57.25
2022-07-29T15:37:01.635Z,59.20
2022-07-29T15:39:30.049Z,57.67
2022-07-29T15:42:00.563Z,57.47
2022-07-29T15:44:29.210Z,56.79
2022-07-29T15:47:07.364Z,56.18
2022-07-29T15:49:46.617Z,60.99
2022-07-29T15:52:25.858Z,60.95
2022-07-29T15:54:55.902Z,56.18
2022-07-29T15:57:24.845Z,58.64
2022-07-29T15:59:53.259Z,55.97
2022-07-29T16:02:21.763Z,56.30
2022-07-29T16:04:50.401Z,55.00
2022-07-29T16:07:20.104Z,56.59
2022-07-29T16:09:53.063Z,58.87
2022-07-29T16:12:21.962Z,58.38
2022-07-29T16:14:51.352Z,58.96
2022-07-29T16:17:19.825Z,58.39
2022-07-29T16:19:48.465Z,57.93
2022-07-29T16:22:16.805Z,59.07
2022-07-29T16:24:46.560Z,60.31
2022-07-29T16:27:14.918Z,60.70
2022-07-29T16:29:43.776Z,60.76
2022-07-29T16:32:12.011Z,58.08
2022-07-29T16:34:41.139Z,60.15
2022-07-29T16:37:09.389Z,60.43
2022-07-29T16:39:37.750Z,59.52
2022-07-29T16:42:07.633Z,60.26
2022-07-29T16:44:36.059Z,59.23
2022-07-29T16:47:04.926Z,60.05
2022-07-29T16:49:33.557Z,60.47
2022-07-29T16:52:01.919Z,59.64
2022-07-29T16:54:30.212Z,58.84
2022-07-29T16:57:00.759Z,59.07
2022-07-29T16:59:31.244Z,57.72
2022-07-29T17:02:02.575Z,58.93
2022-07-29T17:04:31.112Z,56.32
2022-07-29T17:06:59.994Z,56.56
2022-07-29T17:09:29.503Z,58.37
2022-07-29T17:11:57.769Z,58.77
2022-07-29T17:14:29.641Z,56.55
2022-07-29T17:17:01.964Z,57.51
2022-07-29T17:19:33.726Z,56.63
2022-07-29T17:22:10.432Z,58.33
2022-07-29T17:24:43.039Z,56.68
2022-07-29T17:27:11.390Z,57.08
2022-07-29T17:29:40.178Z,57.74
2022-07-29T17:32:10.705Z,57.98
2022-07-29T17:34:39.351Z,58.06
2022-07-29T17:37:09.473Z,56.23
2022-07-29T17:39:40.659Z,60.55
2022-07-29T17:42:10.537Z,63.02
2022-07-29T17:44:38.866Z,64.37
2022-07-29T17:47:15.666Z,66.50
2022-07-29T17:49:44.592Z,70.74
2022-07-29T17:52:13.062Z,72.71
2022-07-29T17:54:41.460Z,71.38
2022-07-29T17:57:09.749Z,73.29
2022-07-29T17:59:37.946Z,72.96
2022-07-29T18:02:06.253Z,73.73
2022-07-29T18:04:36.020Z,74.07
2022-07-29T18:07:06.957Z,74.38
2022-07-29T18:09:38.792Z,75.81
2022-07-29T18:12:07.949Z,75.47
2022-07-29T18:14:36.239Z,77.77
2022-07-29T18:17:04.749Z,79.75
2022-07-29T18:19:33.139Z,81.20
2022-07-29T18:22:05.366Z,82.58
2022-07-29T18:24:34.977Z,83.61
2022-07-29T18:27:03.389Z,84.24
2022-07-29T18:29:31.783Z,84.01
2022-07-29T18:32:01.300Z,85.09
2022-07-29T18:34:29.882Z,87.44
2022-07-29T18:36:58.479Z,87.82
2022-07-29T18:39:28.294Z,89.42
2022-07-29T18:41:56.540Z,89.51
2022-07-29T18:44:24.817Z,90.10
2022-07-29T18:46:53.157Z,90.55
2022-07-29T18:49:22.884Z,91.02
2022-07-29T18:51:52.236Z,92.45
2022-07-29T18:54:20.786Z,92.64
2022-07-29T18:56:50.869Z,93.37
2022-07-29T18:59:20.677Z,94.66
2022-07-29T19:01:49.600Z,94.21
2022-07-29T19:04:18.335Z,95.07
2022-07-29T19:06:46.848Z,95.14
2022-07-29T19:09:15.240Z,95.15
2022-07-29T19:11:43.685Z,95.56
2022-07-29T19:14:13.610Z,95.91
2022-07-29T19:16:41.952Z,96.81
2022-07-29T19:19:10.660Z,97.55
2022-07-29T19:21:38.905Z,97.68
2022-07-29T19:24:12.335Z,97.50
2022-07-29T19:26:46.700Z,97.28
2022-07-29T19:29:16.890Z,96.68
2022-07-29T19:31:45.399Z,96.04
2022-07-29T19:34:14.152Z,94.74
2022-07-29T19:36:43.012Z,93.81
2022-07-29T19:39:11.542Z,93.33
2022-07-29T19:41:39.838Z,91.59
2022-07-29T19:44:08.239Z,90.86
2022-07-29T19:46:38.448Z,90.75
2022-07-29T19:49:09.325Z,90.28
2022-07-29T19:51:43.129Z,88.82
2022-07-29T19:54:15.624Z,87.91
2022-07-29T19:56:44.934Z,86.64
2022-07-29T19:59:17.423Z,85.28
2022-07-29T20:01:56.392Z,84.64
2022-07-29T20:04:24.750Z,84.34
2022-07-29T20:06:56.081Z,83.81
2022-07-29T20:09:24.670Z,82.21
2022-07-29T20:11:52.999Z,81.74
2022-07-29T20:14:21.333Z,80.62
2022-07-29T20:16:49.679Z,80.12
2022-07-29T20:19:19.500Z,78.93
2022-07-29T20:21:47.834Z,78.37
2022-07-29T20:24:16.220Z,77.98
2022-07-29T20:26:44.630Z,77.46
2022-07-29T20:29:12.976Z,76.58
2022-07-29T20:31:43.242Z,76.41
2022-07-29T20:34:14.246Z,75.76
2022-07-29T20:36:44.684Z,75.47
2022-07-29T20:39:13.208Z,74.92
2022-07-29T20:41:49.275Z,74.38
2022-07-29T20:44:18.886Z,73.92
2022-07-29T20:46:48.900Z,73.51
2022-07-29T20:49:17.500Z,73.45
2022-07-29T20:51:47.290Z,73.28
2022-07-29T20:54:15.742Z,73.13
2022-07-29T20:56:43.993Z,72.79
2022-07-29T20:59:12.591Z,72.54
2022-07-29T21:01:43.518Z,72.01
2022-07-29T21:04:14.050Z,71.85
2022-07-29T21:06:42.312Z,71.75
2022-07-29T21:09:11.922Z,71.51
2022-07-29T21:11:45.645Z,71.61
2022-07-29T21:14:27.753Z,71.64
2022-07-29T21:16:56.922Z,71.62
2022-07-29T21:19:26.458Z,71.64
2022-07-29T21:21:54.810Z,71.46
2022-07-29T21:24:24.701Z,71.54
2022-07-29T21:27:20.682Z,71.61
2022-07-29T21:29:48.371Z,71.80
2022-07-29T21:32:27.458Z,72.29
2022-07-29T21:34:59.376Z,72.38
2022-07-29T21:37:28.191Z,72.38
2022-07-29T21:39:57.843Z,72.51
2022-07-29T21:42:26.250Z,72.48
2022-07-29T21:44:54.729Z,72.68
2022-07-29T21:47:23.071Z,72.92
2022-07-29T21:49:51.728Z,73.12
2022-07-29T21:52:20.194Z,73.21
2022-07-29T21:54:49.332Z,73.15
2022-07-29T21:57:19.503Z,73.29
2022-07-29T21:59:50.404Z,73.22
2022-07-29T22:02:18.612Z,73.35
2022-07-29T22:04:46.989Z,73.49
2022-07-29T22:07:15.301Z,73.53
2022-07-29T22:09:43.600Z,73.93
2022-07-29T22:12:11.868Z,74.13
2022-07-29T22:14:41.454Z,74.31
2022-07-29T22:17:09.859Z,74.20
2022-07-29T22:19:38.393Z,74.35
2022-07-29T22:22:06.877Z,74.18
2022-07-29T22:24:35.151Z,74.29
2022-07-29T22:27:03.493Z,74.15
2022-07-29T22:29:31.870Z,74.28
2022-07-29T22:32:01.554Z,74.48
2022-07-29T22:34:34.171Z,74.77
2022-07-29T22:37:06.397Z,74.86
2022-07-29T22:39:35.327Z,75.12
2022-07-29T22:42:03.780Z,75.19
2022-07-29T22:44:32.301Z,75.05
2022-07-29T22:47:02.480Z,75.32
2022-07-29T22:49:31.350Z,75.40
2022-07-29T22:52:00.348Z,75.46
2022-07-29T22:54:30.844Z,75.34
2022-07-29T22:56:59.328Z,75.53
2022-07-29T22:59:27.911Z,75.64
2022-07-29T23:01:56.314Z,75.70
2022-07-29T23:04:26.444Z,75.67
2022-07-29T23:06:55.033Z,75.95
2022-07-29T23:09:23.305Z,75.88
2022-07-29T23:11:51.852Z,76.00
2022-07-29T23:14:20.175Z,76.12
2022-07-29T23:16:48.535Z,76.31
2022-07-29T23:19:16.983Z,76.55
2022-07-29T23:21:46.691Z,76.47
2022-07-29T23:24:14.994Z,76.89
2022-07-29T23:26:43.370Z,76.72
2022-07-29T23:29:11.634Z,76.89
2022-07-29T23:31:41.903Z,76.86
2022-07-29T23:34:16.576Z,76.98
2022-07-29T23:36:46.299Z,77.05
2022-07-29T23:39:14.673Z,77.04
2022-07-29T23:41:42.979Z,76.99
2022-07-29T23:44:11.299Z,77.04
2022-07-29T23:46:39.772Z,77.12
2022-07-29T23:49:08.203Z,77.31
2022-07-29T23:51:36.560Z,77.17
2022-07-29T23:54:06.373Z,77.27
2022-07-29T23:56:34.665Z,77.32
2022-07-29T23:59:05.832Z,77.24
